Flight Track Log - Related Links

Times and Time Zones

All times are in EDT time to prevent confusion due to time zone crossing. See the EJA831 flight status page for this flight to view local times or setup timezone preferences in your user account.

Time Position Orientation Groundspeed Altitude Reporting Facility
EDT Latitude Longitude Course Direction KTS MPH feet Rate Location/Type
Sat 08:00:56 AM 42.1886 -87.9511 241° Southwest 221 254 3,900  Level Chicago Center
Sat 08:01:57 AM 42.1911 -88.0469 272° West 271 312 6,600 3,049 Climbing Chicago Center
Sat 08:02:58 AM 42.1814 -88.1517 263° West 281 323 10,100 3,443 Climbing Chicago Center
Sat 08:03:59 AM 42.1389 -88.2769 245° Southwest 309 356 13,600 2,732 Climbing Chicago Center
Sat 08:05:01 AM 42.0950 -88.3911 243° Southwest 341 392 15,700 2,000 Climbing Chicago Center
Sat 08:06:00 AM 41.9131 -88.4154 241° Southwest  Level FlightAware Approximate
Sat 08:06:02 AM 42.0478 -88.5089 242° Southwest 357 411 17,700  Level Chicago Center
Sat 08:07:03 AM 42.0025 -88.6333 244° Southwest 369 425 19,300 1,574 Climbing Chicago Center
Sat 08:08:04 AM 41.9528 -88.7625 243° Southwest 390 449 20,900 1,561 Climbing Chicago Center
Sat 08:09:06 AM 41.9206 -88.9036 253° West 399 459 22,500 1,561 Climbing Chicago Center
Sat 08:10:07 AM 41.9114 -89.0497 265° West 399 459 24,100 1,525 Climbing Chicago Center
Sat 08:11:08 AM 41.9014 -89.2256 266° West 399 459 25,600 934 Climbing Chicago Center
Sat 08:12:09 AM 41.8917 -89.3803 265° West 416 479 26,000 195 Climbing Chicago Center
Sat 08:13:11 AM 41.8811 -89.5419 265° West 434 499 26,000  Level Chicago Center
Sat 08:14:12 AM 41.8700 -89.7036 265° West 438 504 26,000  Level Chicago Center
Sat 08:15:14 AM 41.8597 -89.8647 265° West 438 504 26,000  Level Chicago Center
Sat 08:16:15 AM 41.8478 -90.0461 265° West 436 502 26,000  Level Chicago Center
Sat 08:17:16 AM 41.8378 -90.2047 265° West 433 498 26,000  Level Chicago Center
Sat 08:18:18 AM 41.8261 -90.3633 264° West 432 497 26,000  Level Chicago Center
Sat 08:19:19 AM 41.8133 -90.5236 264° West 434 499 26,000  Level Chicago Center
Sat 08:20:20 AM 41.8003 -90.6833 264° West 434 499 26,000  Level Chicago Center
Sat 08:21:22 AM 41.7878 -90.8450 264° West 436 502 26,000  Level Chicago Center
Sat 08:22:23 AM 41.7753 -91.0031 264° West 434 499 26,000  Level Chicago Center
Sat 08:23:25 AM 41.7603 -91.1925 264° West 431 496 26,000  Level Chicago Center
Sat 08:24:26 AM 41.7467 -91.3472 263° West 422 486 26,000 -98 Level Chicago Center
Sat 08:25:28 AM 41.7339 -91.5042 264° West 424 488 25,800 -780 Descending Chicago Center
Sat 08:26:29 AM 41.7211 -91.6619 264° West 429 494 24,400 -1,220 Descending Chicago Center
Sat 08:27:31 AM 41.7086 -91.8144 264° West 417 480 23,300 -683 Descending Chicago Center
Sat 08:28:32 AM 41.6956 -91.9597 263° West 401 461 23,000 -146 Descending Chicago Center
Sat 08:29:34 AM 41.6836 -92.1064 264° West 398 458 23,000 -585 Level Chicago Center
Sat 08:30:35 AM 41.6669 -92.2817 263° West 398 458 21,800 -1,366 Descending Chicago Center
Sat 08:31:37 AM 41.6539 -92.4289 263° West 401 461 20,200 -1,561 Descending Chicago Center
Sat 08:32:38 AM 41.6406 -92.5694 263° West 388 447 18,600 -1,459 Descending Chicago Center
Sat 08:33:28 AM 41.6314 -92.6750 263° West 385 443 17,500 -1,306 Descending Minneapolis Center
Sat 08:34:42 AM 41.6178 -92.8086 262° West 375 432 15,900 -1,689 Descending Minneapolis Center
Sat 08:35:43 AM 41.6064 -92.9886 265° West 356 410 13,700 -1,869 Descending Minneapolis Center
Sat 08:36:44 AM 41.6067 -93.1144 270° West 346 398 12,100 -1,574 Descending Minneapolis Center
Sat 08:37:45 AM 41.6078 -93.2394 271° West 343 395 10,500 -1,920 Descending Minneapolis Center
Sat 08:38:24 AM 41.6158 -93.3061 279° West 300 345 8,900 -2,220 Descending Minneapolis Center
Sat 08:39:25 AM 41.6192 -93.4058 273° West 272 313 6,800 -2,035 Descending Minneapolis Center
Sat 08:40:19 AM 41.6239 -93.4892 274° West 248 285 5,000 -1,857 Descending Minneapolis Center
Sat 08:40:49 AM 41.6211 -93.5367 266° West 236 272 4,200 -1,377 Descending Minneapolis Center
Sat 08:41:20 AM 41.6303 -93.5692 291° West 227 261 3,600 -984 Descending Minneapolis Center
Sat 08:41:50 AM 41.6269 -93.6119 264° West 204 235 3,200 -787 Descending Minneapolis Center
Sat 08:42:21 AM 41.6294 -93.6333 279° West 169 194 2,800 -787 Descending Minneapolis Center
Sat 08:42:51 AM 41.6092 -93.6622 227° Southwest 142 163 2,400 -700 Descending Minneapolis Center
Sat 08:43:21 AM 41.6019 -93.6667 205° Southwest 133 153 2,100 -581 Descending Minneapolis Center
Sat 08:43:53 AM 41.5814 -93.6881 218° Southwest 125 144 1,800 -581 Descending Minneapolis Center
Sat 08:44:54 AM 41.5531 -93.6850 175° South 118 136 1,200 -492 Descending Minneapolis Center
Sat 08:45:55 AM 41.5367 -93.6622 134° Southeast 106 122 800 -393 Descending Minneapolis Center
Sat 08:47:00 AM 41.5333 -93.6500 143° Southeast  Level FlightAware Approximate

Login

Don't have an account? Register now (free) for customized features, flight alerts, and more!